createdAt,value
2023-03-05T00:01:11.408Z,66.27
2023-03-05T00:03:38.656Z,66.19
2023-03-05T00:06:05.673Z,65.61
2023-03-05T00:08:32.497Z,66.07
2023-03-05T00:11:04.384Z,66.25
2023-03-05T00:13:31.073Z,65.65
2023-03-05T00:15:57.636Z,65.93
2023-03-05T00:18:24.601Z,66.15
2023-03-05T00:20:51.246Z,66.34
2023-03-05T00:23:17.801Z,66.42
2023-03-05T00:25:45.929Z,66.80
2023-03-05T00:28:13.089Z,66.83
2023-03-05T00:30:40.164Z,66.85
2023-03-05T00:33:07.259Z,67.73
2023-03-05T00:35:43.321Z,67.80
2023-03-05T00:38:11.205Z,67.34
2023-03-05T00:40:39.406Z,67.71
2023-03-05T00:43:06.409Z,67.52
2023-03-05T00:45:33.823Z,67.46
2023-03-05T00:48:00.492Z,67.22
2023-03-05T00:50:27.764Z,67.21
2023-03-05T00:52:54.736Z,67.31
2023-03-05T00:55:21.913Z,67.05
2023-03-05T00:57:48.568Z,66.76
2023-03-05T01:00:16.174Z,66.93
2023-03-05T01:02:42.741Z,67.31
2023-03-05T01:05:13.984Z,67.30
2023-03-05T01:07:40.872Z,68.36
2023-03-05T01:10:08.653Z,68.30
2023-03-05T01:12:35.445Z,67.39
2023-03-05T01:15:02.470Z,67.20
2023-03-05T01:17:29.129Z,68.31
2023-03-05T01:19:55.672Z,68.29
2023-03-05T01:22:22.092Z,68.04
2023-03-05T01:24:48.646Z,68.27
2023-03-05T01:27:15.085Z,68.07
2023-03-05T01:29:41.809Z,68.45
2023-03-05T01:32:08.274Z,68.22
2023-03-05T01:34:37.260Z,68.54
2023-03-05T01:37:04.084Z,68.74
2023-03-05T01:39:30.608Z,68.08
2023-03-05T01:41:57.054Z,68.65
2023-03-05T01:44:29.093Z,68.39
2023-03-05T01:46:56.184Z,68.60
2023-03-05T01:49:27.901Z,68.89
2023-03-05T01:52:03.145Z,69.05
2023-03-05T01:54:35.221Z,69.16
2023-03-05T01:57:08.462Z,69.21
2023-03-05T01:59:37.870Z,68.41
2023-03-05T02:02:07.948Z,68.35
2023-03-05T02:04:41.367Z,68.98
2023-03-05T02:07:08.600Z,68.38
2023-03-05T02:09:38.812Z,69.01
2023-03-05T02:12:05.970Z,68.97
2023-03-05T02:14:33.676Z,69.17
2023-03-05T02:17:00.272Z,69.45
2023-03-05T02:19:27.051Z,69.04
2023-03-05T02:21:54.211Z,69.27
2023-03-05T02:24:37.206Z,69.24
2023-03-05T02:27:05.857Z,69.17
2023-03-05T02:29:33.995Z,69.55
2023-03-05T02:32:01.469Z,69.14
2023-03-05T02:34:27.996Z,68.90
2023-03-05T02:36:55.525Z,69.42
2023-03-05T02:39:23.428Z,69.38
2023-03-05T02:41:49.851Z,69.49
2023-03-05T02:44:16.294Z,69.39
2023-03-05T02:46:42.758Z,69.29
2023-03-05T02:49:09.237Z,69.18
2023-03-05T02:51:35.894Z,69.01
2023-03-05T02:54:02.386Z,69.45
2023-03-05T02:56:29.755Z,68.93
2023-03-05T02:58:56.164Z,68.88
2023-03-05T03:01:22.717Z,69.33
2023-03-05T03:03:49.222Z,69.52
2023-03-05T03:06:15.622Z,69.40
2023-03-05T03:08:42.032Z,69.89
2023-03-05T03:11:12.435Z,70.39
2023-03-05T03:13:39.237Z,70.29
2023-03-05T03:16:12.320Z,70.37
2023-03-05T03:18:39.163Z,70.15
2023-03-05T03:21:06.930Z,69.62
2023-03-05T03:23:34.386Z,70.24
2023-03-05T03:26:00.820Z,70.28
2023-03-05T03:28:27.219Z,70.41
2023-03-05T03:30:53.624Z,70.30
2023-03-05T03:33:20.048Z,70.19
2023-03-05T03:35:46.625Z,69.93
2023-03-05T03:38:13.863Z,70.20
2023-03-05T03:40:41.766Z,70.16
2023-03-05T03:43:08.242Z,70.00
2023-03-05T03:45:34.747Z,69.91
2023-03-05T03:48:01.182Z,70.01
2023-03-05T03:50:27.636Z,69.81
2023-03-05T03:52:54.255Z,70.60
2023-03-05T03:55:20.653Z,70.23
2023-03-05T03:57:47.325Z,70.20
2023-03-05T04:00:14.151Z,70.14
2023-03-05T04:02:41.501Z,70.36
2023-03-05T04:05:08.721Z,70.56
2023-03-05T04:07:35.169Z,70.56
2023-03-05T04:10:04.094Z,70.81
2023-03-05T04:12:31.031Z,70.97
2023-03-05T04:14:57.441Z,70.94
2023-03-05T04:17:23.880Z,71.06
2023-03-05T04:19:50.269Z,70.78
2023-03-05T04:22:18.225Z,70.57
2023-03-05T04:24:44.714Z,70.75
2023-03-05T04:27:12.946Z,70.46
2023-03-05T04:29:39.669Z,69.98
2023-03-05T04:32:06.523Z,70.15
2023-03-05T04:34:33.409Z,70.02
2023-03-05T04:36:59.842Z,70.09
2023-03-05T04:39:26.314Z,70.54
2023-03-05T04:41:52.702Z,70.28
2023-03-05T04:44:19.267Z,70.74
2023-03-05T04:46:46.079Z,70.89
2023-03-05T04:49:12.648Z,70.79
2023-03-05T04:51:39.064Z,70.30
2023-03-05T04:54:05.499Z,70.66
2023-03-05T04:56:31.906Z,70.57
2023-03-05T04:58:58.760Z,70.82
2023-03-05T05:01:25.337Z,70.58
2023-03-05T05:03:52.137Z,70.51
2023-03-05T05:06:18.545Z,70.83
2023-03-05T05:08:44.958Z,70.63
2023-03-05T05:11:14.183Z,70.61
2023-03-05T05:13:40.590Z,70.24
2023-03-05T05:16:08.563Z,70.73
2023-03-05T05:18:35.560Z,70.38
2023-03-05T05:21:02.013Z,70.48
2023-03-05T05:23:28.578Z,70.32
2023-03-05T05:26:00.169Z,70.56
2023-03-05T05:28:27.665Z,70.50
2023-03-05T05:30:54.826Z,70.41
2023-03-05T05:33:21.721Z,70.38
2023-03-05T05:35:48.358Z,70.33
2023-03-05T05:38:14.975Z,70.02
2023-03-05T05:40:41.532Z,70.40
2023-03-05T05:43:08.152Z,70.01
2023-03-05T05:45:37.225Z,70.49
2023-03-05T05:48:03.770Z,70.08
2023-03-05T05:50:30.253Z,70.21
2023-03-05T05:52:56.704Z,70.98
2023-03-05T05:55:23.090Z,70.62
2023-03-05T05:57:49.546Z,70.49
2023-03-05T06:00:16.464Z,69.97
2023-03-05T06:02:43.424Z,70.22
2023-03-05T06:05:12.824Z,70.05
2023-03-05T06:07:39.231Z,70.24
2023-03-05T06:10:06.350Z,70.33
2023-03-05T06:12:32.783Z,70.57
2023-03-05T06:14:59.320Z,70.19
2023-03-05T06:17:30.606Z,70.59
2023-03-05T06:19:58.205Z,70.61
2023-03-05T06:22:24.803Z,70.44
2023-03-05T06:24:51.225Z,70.59
2023-03-05T06:27:17.649Z,70.59
2023-03-05T06:29:44.061Z,70.37
2023-03-05T06:32:10.884Z,70.40
2023-03-05T06:34:37.319Z,71.29
2023-03-05T06:37:03.910Z,70.23
2023-03-05T06:39:31.496Z,70.65
2023-03-05T06:41:58.111Z,70.82
2023-03-05T06:44:25.566Z,70.69
2023-03-05T06:46:52.131Z,69.83
2023-03-05T06:49:18.541Z,70.58
2023-03-05T06:51:44.953Z,69.94
2023-03-05T06:54:14.040Z,69.91
2023-03-05T06:56:43.403Z,70.56
2023-03-05T06:59:11.755Z,70.77
2023-03-05T07:01:38.371Z,69.81
2023-03-05T07:04:05.877Z,70.08
2023-03-05T07:06:34.638Z,69.29
2023-03-05T07:09:02.118Z,70.16
2023-03-05T07:11:29.274Z,70.57
2023-03-05T07:13:55.724Z,69.84
2023-03-05T07:16:27.628Z,70.24
2023-03-05T07:18:54.546Z,69.72
2023-03-05T07:21:22.963Z,69.89
2023-03-05T07:23:49.938Z,70.22
2023-03-05T07:26:16.753Z,70.20
2023-03-05T07:28:43.623Z,70.31
2023-03-05T07:31:21.668Z,70.09
2023-03-05T07:33:49.917Z,69.65
2023-03-05T07:36:16.720Z,69.77
2023-03-05T07:38:43.215Z,69.78
2023-03-05T07:41:12.468Z,70.17
2023-03-05T07:43:39.859Z,69.46
2023-03-05T07:46:08.598Z,69.58
2023-03-05T07:48:35.606Z,69.98
2023-03-05T07:51:07.905Z,70.07
2023-03-05T07:53:34.343Z,70.29
2023-03-05T07:56:00.818Z,70.86
2023-03-05T07:58:27.268Z,70.03
2023-03-05T08:00:53.688Z,70.05
2023-03-05T08:03:20.159Z,70.54
2023-03-05T08:05:47.043Z,70.15
2023-03-05T08:08:13.477Z,70.04
2023-03-05T08:10:39.984Z,69.65
2023-03-05T08:13:06.385Z,69.53
2023-03-05T08:15:32.846Z,69.90
2023-03-05T08:17:59.782Z,69.29
2023-03-05T08:20:26.640Z,69.76
2023-03-05T08:22:53.046Z,69.27
2023-03-05T08:25:19.517Z,69.89
2023-03-05T08:27:47.099Z,69.33
2023-03-05T08:30:21.602Z,69.25
2023-03-05T08:32:51.947Z,69.23
2023-03-05T08:35:18.462Z,68.58
2023-03-05T08:37:44.889Z,69.48
2023-03-05T08:40:11.948Z,68.82
2023-03-05T08:42:38.352Z,68.42
2023-03-05T08:45:05.120Z,68.74
2023-03-05T08:47:31.505Z,68.17
2023-03-05T08:49:58.421Z,67.69
2023-03-05T08:52:25.097Z,67.53
2023-03-05T08:54:51.570Z,68.13
2023-03-05T08:57:18.136Z,67.95
2023-03-05T08:59:44.558Z,67.23
2023-03-05T09:02:13.221Z,66.85
2023-03-05T09:04:40.259Z,67.37
2023-03-05T09:07:07.141Z,66.60
2023-03-05T09:09:33.997Z,67.09
2023-03-05T09:12:01.626Z,66.63
2023-03-05T09:14:28.747Z,65.98
2023-03-05T09:16:56.358Z,65.52
2023-03-05T09:19:23.088Z,64.85
2023-03-05T09:21:50.045Z,64.43
2023-03-05T09:24:16.502Z,64.92
2023-03-05T09:26:42.970Z,64.67
2023-03-05T09:29:09.778Z,64.67
2023-03-05T09:31:36.896Z,64.37
2023-03-05T09:34:04.891Z,65.07
2023-03-05T09:36:32.595Z,63.78
2023-03-05T09:38:59.279Z,64.45
2023-03-05T09:41:50.383Z,64.06
2023-03-05T09:44:43.308Z,63.36
2023-03-05T09:47:43.448Z,63.21
2023-03-05T09:50:22.072Z,62.88
2023-03-05T09:52:55.405Z,63.11
2023-03-05T09:55:40.882Z,62.95
2023-03-05T09:58:22.752Z,61.78
2023-03-05T10:00:53.271Z,61.29
2023-03-05T10:03:28.149Z,61.35
2023-03-05T10:06:07.011Z,62.39
2023-03-05T10:08:46.748Z,60.81
2023-03-05T10:11:29.464Z,60.53
2023-03-05T10:13:55.892Z,60.67
2023-03-05T10:17:01.050Z,59.62
2023-03-05T10:19:49.392Z,58.52
2023-03-05T10:22:20.499Z,57.57
2023-03-05T10:25:20.357Z,57.62
2023-03-05T10:27:54.081Z,56.08
2023-03-05T10:30:33.482Z,56.87
2023-03-05T10:33:21.555Z,55.24
2023-03-05T10:36:22.438Z,55.87
2023-03-05T10:39:08.786Z,55.32
2023-03-05T10:41:56.224Z,55.07
2023-03-05T10:44:37.740Z,54.91
2023-03-05T10:47:16.443Z,53.99
2023-03-05T10:49:50.928Z,53.32
2023-03-05T10:52:39.601Z,54.26
2023-03-05T10:55:17.607Z,54.07
2023-03-05T10:57:44.751Z,54.41
2023-03-05T11:00:17.715Z,54.26
2023-03-05T11:02:58.222Z,52.53
2023-03-05T11:05:42.653Z,52.38
2023-03-05T11:08:30.547Z,51.52
2023-03-05T11:11:11.968Z,51.56
2023-03-05T11:13:52.351Z,50.94
2023-03-05T11:16:26.499Z,50.89
2023-03-05T11:19:14.745Z,51.67
2023-03-05T11:21:43.090Z,50.59
2023-03-05T11:24:18.714Z,51.00
2023-03-05T11:26:57.237Z,52.02
2023-03-05T11:29:26.969Z,52.45
2023-03-05T11:31:53.966Z,51.22
2023-03-05T11:34:20.327Z,52.01
2023-03-05T11:36:56.276Z,51.78
2023-03-05T11:39:25.218Z,52.29
2023-03-05T11:42:09.501Z,52.50
2023-03-05T11:44:45.174Z,52.22
2023-03-05T11:47:37.322Z,51.18
2023-03-05T11:50:15.778Z,51.64
2023-03-05T11:52:47.955Z,50.17
2023-03-05T11:55:19.795Z,50.15
2023-03-05T11:57:58.204Z,49.19
2023-03-05T12:00:29.041Z,49.94
2023-03-05T12:02:58.421Z,50.04
2023-03-05T12:05:25.215Z,49.89
2023-03-05T12:07:55.273Z,49.13
2023-03-05T12:10:24.671Z,49.11
2023-03-05T12:13:20.153Z,49.81
2023-03-05T12:15:54.708Z,48.41
2023-03-05T12:18:33.710Z,48.87
2023-03-05T12:21:06.497Z,49.56
2023-03-05T12:23:52.694Z,49.04
2023-03-05T12:26:59.287Z,49.30
2023-03-05T12:29:39.012Z,49.64
2023-03-05T12:32:33.946Z,49.21
2023-03-05T12:35:22.772Z,48.89
2023-03-05T12:37:49.130Z,49.39
2023-03-05T12:40:15.536Z,49.25
2023-03-05T12:42:41.878Z,49.60
2023-03-05T12:45:17.300Z,49.79
2023-03-05T12:47:56.513Z,49.71
2023-03-05T12:50:29.015Z,50.55
2023-03-05T12:53:04.385Z,50.49
2023-03-05T12:55:39.855Z,49.89
2023-03-05T12:58:14.980Z,50.30
2023-03-05T13:00:52.336Z,49.99
2023-03-05T13:03:30.603Z,49.76
2023-03-05T13:06:00.405Z,48.94
2023-03-05T13:08:38.053Z,49.93
2023-03-05T13:11:21.243Z,49.90
2023-03-05T13:13:48.545Z,50.65
2023-03-05T13:16:19.852Z,51.48
2023-03-05T13:18:48.626Z,50.09
2023-03-05T13:21:20.409Z,50.35
2023-03-05T13:23:58.372Z,50.98
2023-03-05T13:26:29.989Z,50.25
2023-03-05T13:29:22.229Z,49.83
2023-03-05T13:31:54.670Z,49.60
2023-03-05T13:34:26.603Z,49.65
2023-03-05T13:37:00.781Z,49.56
2023-03-05T13:39:34.189Z,50.07
2023-03-05T13:42:03.999Z,49.63
2023-03-05T13:44:31.819Z,49.32
2023-03-05T13:47:17.123Z,50.41
2023-03-05T13:49:44.262Z,49.95
2023-03-05T13:52:11.632Z,49.24
2023-03-05T13:54:38.329Z,49.60
2023-03-05T13:57:08.352Z,49.10
2023-03-05T13:59:38.906Z,49.00
2023-03-05T14:02:18.238Z,49.39
2023-03-05T14:04:46.270Z,49.49
2023-03-05T14:07:33.375Z,49.51
2023-03-05T14:10:00.717Z,49.56
2023-03-05T14:12:38.338Z,49.85
2023-03-05T14:15:21.339Z,49.52
2023-03-05T14:17:48.173Z,49.81
2023-03-05T14:20:23.248Z,49.75
2023-03-05T14:22:53.360Z,49.96
2023-03-05T14:25:34.033Z,51.12
2023-03-05T14:28:06.458Z,51.10
2023-03-05T14:30:35.949Z,51.87
2023-03-05T14:33:03.655Z,51.71
2023-03-05T14:35:30.622Z,51.19
2023-03-05T14:37:59.697Z,51.74
2023-03-05T14:40:35.214Z,52.20
2023-03-05T14:43:06.503Z,52.79
2023-03-05T14:45:36.618Z,52.22
2023-03-05T14:48:05.094Z,52.66
2023-03-05T14:50:37.592Z,51.86
2023-03-05T14:53:09.408Z,51.82
2023-03-05T14:55:38.162Z,53.42
2023-03-05T14:58:12.215Z,54.71
2023-03-05T15:00:38.639Z,55.12
2023-03-05T15:03:05.306Z,55.16
2023-03-05T15:05:32.285Z,55.15
2023-03-05T15:07:59.222Z,55.19
2023-03-05T15:10:26.194Z,55.35
2023-03-05T15:12:53.410Z,54.24
2023-03-05T15:15:20.914Z,54.33
2023-03-05T15:17:51.531Z,54.53
2023-03-05T15:20:21.453Z,54.54
2023-03-05T15:22:48.039Z,55.22
2023-03-05T15:25:14.771Z,54.61
2023-03-05T15:27:41.282Z,54.21
2023-03-05T15:30:09.527Z,54.38
2023-03-05T15:32:36.013Z,53.38
2023-03-05T15:35:02.478Z,53.31
2023-03-05T15:37:28.930Z,53.96
2023-03-05T15:39:55.362Z,54.68
2023-03-05T15:42:21.763Z,54.79
2023-03-05T15:44:48.233Z,54.56
2023-03-05T15:47:14.731Z,55.04
2023-03-05T15:49:41.172Z,54.26
2023-03-05T15:52:07.600Z,54.90
2023-03-05T15:54:35.615Z,54.59
2023-03-05T15:57:02.009Z,54.56
2023-03-05T15:59:28.410Z,54.66
2023-03-05T16:01:54.895Z,55.12
2023-03-05T16:04:21.369Z,54.90
2023-03-05T16:06:49.409Z,55.94
2023-03-05T16:09:17.704Z,56.04
2023-03-05T16:11:47.853Z,56.25
2023-03-05T16:14:17.400Z,55.92
2023-03-05T16:16:44.013Z,56.53
2023-03-05T16:19:15.859Z,56.52
2023-03-05T16:21:42.506Z,56.64
2023-03-05T16:24:09.015Z,56.75
2023-03-05T16:26:39.824Z,55.13
2023-03-05T16:29:06.626Z,55.38
2023-03-05T16:31:35.373Z,55.42
2023-03-05T16:34:02.073Z,56.52
2023-03-05T16:36:30.888Z,55.81
2023-03-05T16:38:59.242Z,54.91
2023-03-05T16:41:26.607Z,55.24
2023-03-05T16:43:56.239Z,55.72
2023-03-05T16:46:27.945Z,54.94
2023-03-05T16:48:54.572Z,55.17
2023-03-05T16:51:21.846Z,55.12
2023-03-05T16:53:48.337Z,55.77
2023-03-05T16:56:15.001Z,56.21
2023-03-05T16:58:41.455Z,56.21
2023-03-05T17:01:13.979Z,57.03
2023-03-05T17:03:41.555Z,56.62
2023-03-05T17:06:13.450Z,56.89
2023-03-05T17:08:41.432Z,57.28
2023-03-05T17:11:08.040Z,57.47
2023-03-05T17:13:34.782Z,58.01
2023-03-05T17:16:01.839Z,57.87
2023-03-05T17:18:28.344Z,57.14
2023-03-05T17:20:54.884Z,57.95
2023-03-05T17:23:21.334Z,57.62
2023-03-05T17:25:47.824Z,58.25
2023-03-05T17:28:14.703Z,58.07
2023-03-05T17:30:41.254Z,58.22
2023-03-05T17:33:07.882Z,58.75
2023-03-05T17:35:35.300Z,60.01
2023-03-05T17:38:07.681Z,60.02
2023-03-05T17:40:34.333Z,60.15
2023-03-05T17:43:00.850Z,59.78
2023-03-05T17:45:27.374Z,59.75
2023-03-05T17:47:53.988Z,59.83
2023-03-05T17:50:20.700Z,60.81
2023-03-05T17:52:47.561Z,60.36
2023-03-05T17:55:15.757Z,60.57
2023-03-05T17:57:44.267Z,60.17
2023-03-05T18:00:17.745Z,60.15
2023-03-05T18:02:44.645Z,60.06
2023-03-05T18:05:12.198Z,60.98
2023-03-05T18:07:38.905Z,59.86
2023-03-05T18:10:07.488Z,59.78
2023-03-05T18:12:34.069Z,59.84
2023-03-05T18:15:00.457Z,60.48
2023-03-05T18:17:26.860Z,59.88
2023-03-05T18:19:53.572Z,59.94
2023-03-05T18:22:19.998Z,60.17
2023-03-05T18:24:46.423Z,59.93
2023-03-05T18:27:13.046Z,59.11
2023-03-05T18:29:39.547Z,59.05
2023-03-05T18:32:06.090Z,59.35
2023-03-05T18:34:32.506Z,59.76
2023-03-05T18:37:00.681Z,58.83
2023-03-05T18:39:33.266Z,59.01
2023-03-05T18:42:00.164Z,59.09
2023-03-05T18:44:26.862Z,59.66
2023-03-05T18:46:53.866Z,59.25
2023-03-05T18:49:20.485Z,58.83
2023-03-05T18:51:47.012Z,59.71
2023-03-05T18:54:13.408Z,59.02
2023-03-05T18:56:39.862Z,59.59
2023-03-05T18:59:06.320Z,59.21
2023-03-05T19:01:32.898Z,59.18
2023-03-05T19:03:59.376Z,59.03
2023-03-05T19:06:26.043Z,59.14
2023-03-05T19:08:57.231Z,58.89
2023-03-05T19:11:23.771Z,59.20
2023-03-05T19:13:51.591Z,59.22
2023-03-05T19:16:29.197Z,59.29
2023-03-05T19:19:05.135Z,59.40
2023-03-05T19:21:32.162Z,59.69
2023-03-05T19:23:58.608Z,59.65
2023-03-05T19:26:25.044Z,59.86
2023-03-05T19:28:51.476Z,59.55
2023-03-05T19:31:17.985Z,60.37
2023-03-05T19:33:44.398Z,60.01
2023-03-05T19:36:12.650Z,60.06
2023-03-05T19:38:40.055Z,60.13
2023-03-05T19:41:10.520Z,60.26
2023-03-05T19:43:37.635Z,60.57
2023-03-05T19:46:07.150Z,60.23
2023-03-05T19:48:34.905Z,60.48
2023-03-05T19:51:03.061Z,60.35
2023-03-05T19:53:29.790Z,60.47
2023-03-05T19:55:56.651Z,60.34
2023-03-05T19:58:23.045Z,60.84
2023-03-05T20:00:49.483Z,61.27
2023-03-05T20:03:15.898Z,60.71
2023-03-05T20:05:43.715Z,61.08
2023-03-05T20:08:10.321Z,61.94
2023-03-05T20:10:36.776Z,61.91
2023-03-05T20:13:03.193Z,61.67
2023-03-05T20:15:29.764Z,61.52
2023-03-05T20:17:57.574Z,61.55
2023-03-05T20:20:24.741Z,61.64
2023-03-05T20:22:51.178Z,62.58
2023-03-05T20:25:21.086Z,62.28
2023-03-05T20:27:47.497Z,62.67
2023-03-05T20:30:15.505Z,62.14
2023-03-05T20:32:42.088Z,62.33
2023-03-05T20:35:13.783Z,62.59
2023-03-05T20:37:49.113Z,61.34
2023-03-05T20:40:16.673Z,61.91
2023-03-05T20:42:43.365Z,61.78
2023-03-05T20:45:10.222Z,62.03
2023-03-05T20:47:45.847Z,61.90
2023-03-05T20:50:14.366Z,61.88
2023-03-05T20:52:41.085Z,62.00
2023-03-05T20:55:08.370Z,61.85
2023-03-05T20:57:34.834Z,62.12
2023-03-05T21:00:03.355Z,62.60
2023-03-05T21:02:30.405Z,62.47
2023-03-05T21:04:56.854Z,62.16
2023-03-05T21:07:23.282Z,62.17
2023-03-05T21:09:49.702Z,62.01
2023-03-05T21:12:16.193Z,61.78
2023-03-05T21:14:42.594Z,62.32
2023-03-05T21:17:09.391Z,61.78
2023-03-05T21:19:38.223Z,62.01
2023-03-05T21:22:04.820Z,61.91
2023-03-05T21:24:42.473Z,61.88
2023-03-05T21:27:09.060Z,61.58
2023-03-05T21:29:35.451Z,62.35
2023-03-05T21:32:02.422Z,61.25
2023-03-05T21:34:28.924Z,61.92
2023-03-05T21:36:55.325Z,62.05
2023-03-05T21:39:21.711Z,61.92
2023-03-05T21:41:48.269Z,62.16
2023-03-05T21:44:17.520Z,61.34
2023-03-05T21:46:43.947Z,61.62
2023-03-05T21:49:10.387Z,61.38
2023-03-05T21:51:48.785Z,61.50
2023-03-05T21:54:15.222Z,61.30
2023-03-05T21:56:41.630Z,61.39
2023-03-05T21:59:08.014Z,61.37
2023-03-05T22:01:34.561Z,61.63
2023-03-05T22:04:01.005Z,61.18
2023-03-05T22:06:27.514Z,61.27
2023-03-05T22:08:53.906Z,61.52
2023-03-05T22:11:21.075Z,62.55
2023-03-05T22:13:47.741Z,62.18
2023-03-05T22:16:25.675Z,62.26
2023-03-05T22:18:53.207Z,61.55
2023-03-05T22:21:27.656Z,61.68
2023-03-05T22:23:56.994Z,60.94
2023-03-05T22:26:25.232Z,62.21
2023-03-05T22:28:51.779Z,61.55
2023-03-05T22:31:26.549Z,61.33
2023-03-05T22:33:53.672Z,62.04
2023-03-05T22:36:20.626Z,62.95
2023-03-05T22:38:47.147Z,63.40
2023-03-05T22:41:16.604Z,62.80
2023-03-05T22:43:43.020Z,62.14
2023-03-05T22:46:10.473Z,61.73
2023-03-05T22:48:36.974Z,62.60
2023-03-05T22:51:03.391Z,62.20
2023-03-05T22:53:30.221Z,63.19
2023-03-05T22:55:56.652Z,63.36
2023-03-05T22:58:23.206Z,63.02
2023-03-05T23:00:49.628Z,63.50
2023-03-05T23:03:16.245Z,63.74
2023-03-05T23:05:42.698Z,63.28
2023-03-05T23:08:09.224Z,63.22
2023-03-05T23:10:35.812Z,64.00
2023-03-05T23:13:02.536Z,64.74
2023-03-05T23:15:32.058Z,65.08
2023-03-05T23:17:59.062Z,64.75
2023-03-05T23:20:29.181Z,64.31
2023-03-05T23:22:56.139Z,63.86
2023-03-05T23:25:24.967Z,64.12
2023-03-05T23:27:51.583Z,64.08
2023-03-05T23:30:26.629Z,65.34
2023-03-05T23:32:54.378Z,65.18
2023-03-05T23:35:25.062Z,65.40
2023-03-05T23:37:52.870Z,64.76
2023-03-05T23:40:25.158Z,64.41
2023-03-05T23:42:52.491Z,65.05
2023-03-05T23:45:21.088Z,64.83
2023-03-05T23:47:48.738Z,64.96
2023-03-05T23:50:20.953Z,65.16
2023-03-05T23:52:48.914Z,64.43
2023-03-05T23:55:19.378Z,64.61
2023-03-05T23:57:46.957Z,64.31
